sensor_id;sensor_type;location;lat;lon;timestamp;temperature;humidity
2062;DHT22;11070;51.336;12.340;2023-06-22T00:00:51;21.80;99.90
2062;DHT22;11070;51.336;12.340;2023-06-22T00:03:21;21.80;99.90
2062;DHT22;11070;51.336;12.340;2023-06-22T00:05:48;21.70;99.90
2062;DHT22;11070;51.336;12.340;2023-06-22T00:08:14;21.70;99.90
2062;DHT22;11070;51.336;12.340;2023-06-22T00:10:41;21.60;99.90
2062;DHT22;11070;51.336;12.340;2023-06-22T00:13:07;21.50;99.90
2062;DHT22;11070;51.336;12.340;2023-06-22T00:15:34;21.50;99.90
2062;DHT22;11070;51.336;12.340;2023-06-22T00:17:59;21.50;99.90
2062;DHT22;11070;51.336;12.340;2023-06-22T00:20:26;21.50;99.90
2062;DHT22;11070;51.336;12.340;2023-06-22T00:22:56;21.50;99.90
2062;DHT22;11070;51.336;12.340;2023-06-22T00:25:22;21.40;99.90
2062;DHT22;11070;51.336;12.340;2023-06-22T00:27:48;21.30;99.90
2062;DHT22;11070;51.336;12.340;2023-06-22T00:30:16;21.20;99.90
2062;DHT22;11070;51.336;12.340;2023-06-22T00:32:42;21.20;99.90
2062;DHT22;11070;51.336;12.340;2023-06-22T00:35:08;21.10;99.90
2062;DHT22;11070;51.336;12.340;2023-06-22T00:37:34;21.10;99.90
2062;DHT22;11070;51.336;12.340;2023-06-22T00:40:01;21.10;99.90
2062;DHT22;11070;51.336;12.340;2023-06-22T00:42:27;21.10;99.90
2062;DHT22;11070;51.336;12.340;2023-06-22T00:44:53;21.00;99.90
2062;DHT22;11070;51.336;12.340;2023-06-22T00:47:18;20.90;99.90
2062;DHT22;11070;51.336;12.340;2023-06-22T00:49:45;20.90;99.90
2062;DHT22;11070;51.336;12.340;2023-06-22T00:52:13;20.80;99.90
2062;DHT22;11070;51.336;12.340;2023-06-22T00:54:47;20.80;99.90
2062;DHT22;11070;51.336;12.340;2023-06-22T00:57:14;20.70;99.90
2062;DHT22;11070;51.336;12.340;2023-06-22T00:59:44;20.70;99.90
2062;DHT22;11070;51.336;12.340;2023-06-22T01:02:10;20.70;99.90
2062;DHT22;11070;51.336;12.340;2023-06-22T01:04:37;20.70;99.90
2062;DHT22;11070;51.336;12.340;2023-06-22T01:07:31;20.60;99.90
2062;DHT22;11070;51.336;12.340;2023-06-22T01:10:24;20.70;99.90
2062;DHT22;11070;51.336;12.340;2023-06-22T01:13:02;20.70;99.90
2062;DHT22;11070;51.336;12.340;2023-06-22T01:15:55;20.70;99.90
2062;DHT22;11070;51.336;12.340;2023-06-22T01:18:19;20.70;99.90
2062;DHT22;11070;51.336;12.340;2023-06-22T01:20:47;20.80;99.90
2062;DHT22;11070;51.336;12.340;2023-06-22T01:28:50;20.60;99.90
2062;DHT22;11070;51.336;12.340;2023-06-22T01:31:19;20.50;99.90
2062;DHT22;11070;51.336;12.340;2023-06-22T01:33:50;20.50;99.90
2062;DHT22;11070;51.336;12.340;2023-06-22T01:36:17;20.40;99.90
2062;DHT22;11070;51.336;12.340;2023-06-22T01:38:44;20.50;99.90
2062;DHT22;11070;51.336;12.340;2023-06-22T01:41:11;20.50;99.90
2062;DHT22;11070;51.336;12.340;2023-06-22T01:43:38;20.50;99.90
2062;DHT22;11070;51.336;12.340;2023-06-22T01:46:04;20.60;99.90
2062;DHT22;11070;51.336;12.340;2023-06-22T01:48:30;20.50;99.90
2062;DHT22;11070;51.336;12.340;2023-06-22T01:50:56;20.50;99.90
2062;DHT22;11070;51.336;12.340;2023-06-22T01:53:23;20.40;99.90
2062;DHT22;11070;51.336;12.340;2023-06-22T01:55:49;20.40;99.90
2062;DHT22;11070;51.336;12.340;2023-06-22T01:58:15;20.40;99.90
2062;DHT22;11070;51.336;12.340;2023-06-22T02:00:45;20.50;99.90
2062;DHT22;11070;51.336;12.340;2023-06-22T02:03:17;20.50;99.90
2062;DHT22;11070;51.336;12.340;2023-06-22T02:05:56;20.50;99.90
2062;DHT22;11070;51.336;12.340;2023-06-22T02:08:30;20.40;99.90
2062;DHT22;11070;51.336;12.340;2023-06-22T02:10:58;20.30;99.90
2062;DHT22;11070;51.336;12.340;2023-06-22T02:13:25;20.20;99.90
2062;DHT22;11070;51.336;12.340;2023-06-22T02:15:51;20.20;99.90
2062;DHT22;11070;51.336;12.340;2023-06-22T02:18:17;20.20;99.90
2062;DHT22;11070;51.336;12.340;2023-06-22T02:20:43;20.10;99.90
2062;DHT22;11070;51.336;12.340;2023-06-22T02:23:08;20.10;99.90
2062;DHT22;11070;51.336;12.340;2023-06-22T02:25:35;20.10;99.90
2062;DHT22;11070;51.336;12.340;2023-06-22T02:28:01;20.00;99.90
2062;DHT22;11070;51.336;12.340;2023-06-22T02:30:27;19.90;99.90
2062;DHT22;11070;51.336;12.340;2023-06-22T02:32:52;19.80;99.90
2062;DHT22;11070;51.336;12.340;2023-06-22T02:35:33;19.80;99.90
2062;DHT22;11070;51.336;12.340;2023-06-22T02:38:02;19.80;99.90
2062;DHT22;11070;51.336;12.340;2023-06-22T02:40:31;19.80;99.90
2062;DHT22;11070;51.336;12.340;2023-06-22T02:42:58;19.80;99.90
2062;DHT22;11070;51.336;12.340;2023-06-22T02:45:27;19.80;99.90
2062;DHT22;11070;51.336;12.340;2023-06-22T02:47:52;19.80;99.90
2062;DHT22;11070;51.336;12.340;2023-06-22T02:50:18;19.80;99.90
2062;DHT22;11070;51.336;12.340;2023-06-22T02:52:44;19.80;99.90
2062;DHT22;11070;51.336;12.340;2023-06-22T02:55:09;19.80;99.90
2062;DHT22;11070;51.336;12.340;2023-06-22T02:57:35;19.80;99.90
2062;DHT22;11070;51.336;12.340;2023-06-22T03:00:03;19.80;99.90
2062;DHT22;11070;51.336;12.340;2023-06-22T03:02:38;19.90;99.90
2062;DHT22;11070;51.336;12.340;2023-06-22T03:05:03;19.90;99.90
2062;DHT22;11070;51.336;12.340;2023-06-22T03:07:29;19.80;99.90
2062;DHT22;11070;51.336;12.340;2023-06-22T03:09:55;19.80;99.90
2062;DHT22;11070;51.336;12.340;2023-06-22T03:12:21;19.80;99.90
2062;DHT22;11070;51.336;12.340;2023-06-22T03:14:47;19.80;99.90
2062;DHT22;11070;51.336;12.340;2023-06-22T03:17:12;19.80;99.90
2062;DHT22;11070;51.336;12.340;2023-06-22T03:19:38;19.80;99.90
2062;DHT22;11070;51.336;12.340;2023-06-22T03:22:04;19.80;99.90
2062;DHT22;11070;51.336;12.340;2023-06-22T03:24:29;19.90;99.90
2062;DHT22;11070;51.336;12.340;2023-06-22T03:26:55;19.90;99.90
2062;DHT22;11070;51.336;12.340;2023-06-22T03:29:22;19.90;99.90
2062;DHT22;11070;51.336;12.340;2023-06-22T03:31:49;19.90;99.90
2062;DHT22;11070;51.336;12.340;2023-06-22T03:34:14;19.90;99.90
2062;DHT22;11070;51.336;12.340;2023-06-22T03:36:40;20.00;99.90
2062;DHT22;11070;51.336;12.340;2023-06-22T03:39:06;20.00;99.90
2062;DHT22;11070;51.336;12.340;2023-06-22T03:41:31;20.00;99.90
2062;DHT22;11070;51.336;12.340;2023-06-22T03:43:57;20.10;99.90
2062;DHT22;11070;51.336;12.340;2023-06-22T03:46:22;20.10;99.90
2062;DHT22;11070;51.336;12.340;2023-06-22T03:48:49;20.10;99.90
2062;DHT22;11070;51.336;12.340;2023-06-22T03:51:15;20.10;99.90
2062;DHT22;11070;51.336;12.340;2023-06-22T03:53:44;20.20;99.90
2062;DHT22;11070;51.336;12.340;2023-06-22T03:56:09;20.20;99.90
2062;DHT22;11070;51.336;12.340;2023-06-22T03:58:35;20.30;99.90
2062;DHT22;11070;51.336;12.340;2023-06-22T04:01:02;20.40;99.90
2062;DHT22;11070;51.336;12.340;2023-06-22T04:03:27;20.40;99.90
2062;DHT22;11070;51.336;12.340;2023-06-22T04:05:53;20.50;99.90
2062;DHT22;11070;51.336;12.340;2023-06-22T04:08:20;20.50;99.90
2062;DHT22;11070;51.336;12.340;2023-06-22T04:10:45;20.60;99.90
2062;DHT22;11070;51.336;12.340;2023-06-22T04:13:11;20.70;99.90
2062;DHT22;11070;51.336;12.340;2023-06-22T04:15:37;20.80;99.90
2062;DHT22;11070;51.336;12.340;2023-06-22T04:18:02;20.80;99.90
2062;DHT22;11070;51.336;12.340;2023-06-22T04:20:28;20.90;99.90
2062;DHT22;11070;51.336;12.340;2023-06-22T04:22:54;21.10;99.90
2062;DHT22;11070;51.336;12.340;2023-06-22T04:25:20;21.30;99.90
2062;DHT22;11070;51.336;12.340;2023-06-22T04:27:46;21.40;99.90
2062;DHT22;11070;51.336;12.340;2023-06-22T04:30:12;21.50;99.90
2062;DHT22;11070;51.336;12.340;2023-06-22T04:32:40;21.60;99.90
2062;DHT22;11070;51.336;12.340;2023-06-22T04:35:06;21.40;99.90
2062;DHT22;11070;51.336;12.340;2023-06-22T04:37:33;21.40;99.90
2062;DHT22;11070;51.336;12.340;2023-06-22T04:39:59;21.20;99.90
2062;DHT22;11070;51.336;12.340;2023-06-22T04:42:28;21.00;99.90
2062;DHT22;11070;51.336;12.340;2023-06-22T04:44:53;20.80;99.90
2062;DHT22;11070;51.336;12.340;2023-06-22T04:47:19;20.60;99.90
2062;DHT22;11070;51.336;12.340;2023-06-22T04:49:45;20.60;99.90
2062;DHT22;11070;51.336;12.340;2023-06-22T04:52:13;20.50;99.90
2062;DHT22;11070;51.336;12.340;2023-06-22T04:54:40;20.60;99.90
2062;DHT22;11070;51.336;12.340;2023-06-22T04:57:13;20.70;99.90
2062;DHT22;11070;51.336;12.340;2023-06-22T04:59:40;20.70;99.90
2062;DHT22;11070;51.336;12.340;2023-06-22T05:02:07;20.70;99.90
2062;DHT22;11070;51.336;12.340;2023-06-22T05:04:33;20.90;99.90
2062;DHT22;11070;51.336;12.340;2023-06-22T05:07:01;21.00;99.90
2062;DHT22;11070;51.336;12.340;2023-06-22T05:09:27;21.20;99.90
2062;DHT22;11070;51.336;12.340;2023-06-22T05:11:53;21.30;99.90
2062;DHT22;11070;51.336;12.340;2023-06-22T05:14:19;21.50;99.90
2062;DHT22;11070;51.336;12.340;2023-06-22T05:16:45;21.70;99.90
2062;DHT22;11070;51.336;12.340;2023-06-22T05:19:11;21.70;99.90
2062;DHT22;11070;51.336;12.340;2023-06-22T05:21:37;21.80;99.90
2062;DHT22;11070;51.336;12.340;2023-06-22T05:24:05;22.00;99.90
2062;DHT22;11070;51.336;12.340;2023-06-22T05:26:33;22.40;99.90
2062;DHT22;11070;51.336;12.340;2023-06-22T05:29:00;22.50;99.90
2062;DHT22;11070;51.336;12.340;2023-06-22T05:31:26;22.70;99.90
2062;DHT22;11070;51.336;12.340;2023-06-22T05:33:54;22.80;99.90
2062;DHT22;11070;51.336;12.340;2023-06-22T05:36:20;22.90;99.90
2062;DHT22;11070;51.336;12.340;2023-06-22T05:38:47;23.00;99.90
2062;DHT22;11070;51.336;12.340;2023-06-22T05:41:13;23.00;99.90
2062;DHT22;11070;51.336;12.340;2023-06-22T05:43:42;23.10;99.90
2062;DHT22;11070;51.336;12.340;2023-06-22T05:46:08;23.10;99.90
2062;DHT22;11070;51.336;12.340;2023-06-22T05:48:34;23.20;99.90
2062;DHT22;11070;51.336;12.340;2023-06-22T05:50:59;23.30;99.90
2062;DHT22;11070;51.336;12.340;2023-06-22T05:53:25;23.60;99.90
2062;DHT22;11070;51.336;12.340;2023-06-22T05:55:51;23.80;99.90
2062;DHT22;11070;51.336;12.340;2023-06-22T05:58:17;24.00;99.90
2062;DHT22;11070;51.336;12.340;2023-06-22T06:00:43;24.10;99.90
2062;DHT22;11070;51.336;12.340;2023-06-22T06:03:10;24.10;99.90
2062;DHT22;11070;51.336;12.340;2023-06-22T06:05:36;24.20;99.90
2062;DHT22;11070;51.336;12.340;2023-06-22T06:08:05;24.40;99.90
2062;DHT22;11070;51.336;12.340;2023-06-22T06:10:31;24.40;99.90
2062;DHT22;11070;51.336;12.340;2023-06-22T06:12:57;24.70;99.90
2062;DHT22;11070;51.336;12.340;2023-06-22T06:15:23;24.60;99.90
2062;DHT22;11070;51.336;12.340;2023-06-22T06:17:50;24.60;99.90
2062;DHT22;11070;51.336;12.340;2023-06-22T06:20:19;24.60;99.90
2062;DHT22;11070;51.336;12.340;2023-06-22T06:22:45;24.80;99.90
2062;DHT22;11070;51.336;12.340;2023-06-22T06:25:11;24.80;99.90
2062;DHT22;11070;51.336;12.340;2023-06-22T06:27:45;25.10;99.90
2062;DHT22;11070;51.336;12.340;2023-06-22T06:30:12;25.30;99.90
2062;DHT22;11070;51.336;12.340;2023-06-22T06:32:38;25.60;99.90
2062;DHT22;11070;51.336;12.340;2023-06-22T06:35:08;25.80;99.90
2062;DHT22;11070;51.336;12.340;2023-06-22T06:37:40;26.00;99.90
2062;DHT22;11070;51.336;12.340;2023-06-22T06:40:06;26.10;99.90
2062;DHT22;11070;51.336;12.340;2023-06-22T06:42:39;26.00;99.90
2062;DHT22;11070;51.336;12.340;2023-06-22T06:45:08;26.10;99.90
2062;DHT22;11070;51.336;12.340;2023-06-22T06:47:34;26.20;99.90
2062;DHT22;11070;51.336;12.340;2023-06-22T06:49:59;26.40;99.90
2062;DHT22;11070;51.336;12.340;2023-06-22T06:52:25;26.80;99.90
2062;DHT22;11070;51.336;12.340;2023-06-22T06:54:52;26.90;99.90
2062;DHT22;11070;51.336;12.340;2023-06-22T06:57:18;27.00;99.90
2062;DHT22;11070;51.336;12.340;2023-06-22T06:59:44;27.10;99.90
2062;DHT22;11070;51.336;12.340;2023-06-22T07:02:09;27.00;99.90
2062;DHT22;11070;51.336;12.340;2023-06-22T07:04:35;27.10;99.90
2062;DHT22;11070;51.336;12.340;2023-06-22T07:07:02;27.40;99.90
2062;DHT22;11070;51.336;12.340;2023-06-22T07:09:28;27.50;99.90
2062;DHT22;11070;51.336;12.340;2023-06-22T07:11:54;27.50;99.90
2062;DHT22;11070;51.336;12.340;2023-06-22T07:14:19;27.70;99.90
2062;DHT22;11070;51.336;12.340;2023-06-22T07:16:45;27.60;99.90
2062;DHT22;11070;51.336;12.340;2023-06-22T07:19:14;27.20;99.90
2062;DHT22;11070;51.336;12.340;2023-06-22T07:21:39;27.10;99.90
2062;DHT22;11070;51.336;12.340;2023-06-22T07:24:06;27.00;99.90
2062;DHT22;11070;51.336;12.340;2023-06-22T07:26:32;27.00;99.90
2062;DHT22;11070;51.336;12.340;2023-06-22T07:28:58;27.00;99.90
2062;DHT22;11070;51.336;12.340;2023-06-22T07:31:27;27.30;99.90
2062;DHT22;11070;51.336;12.340;2023-06-22T07:33:52;27.60;99.90
2062;DHT22;11070;51.336;12.340;2023-06-22T07:36:18;27.70;99.90
2062;DHT22;11070;51.336;12.340;2023-06-22T07:38:44;27.80;99.90
2062;DHT22;11070;51.336;12.340;2023-06-22T07:41:10;28.00;99.90
2062;DHT22;11070;51.336;12.340;2023-06-22T07:43:35;28.20;99.90
2062;DHT22;11070;51.336;12.340;2023-06-22T07:46:05;28.50;99.90
2062;DHT22;11070;51.336;12.340;2023-06-22T07:48:31;28.60;99.90
2062;DHT22;11070;51.336;12.340;2023-06-22T07:50:57;28.50;99.90
2062;DHT22;11070;51.336;12.340;2023-06-22T07:53:22;28.20;99.90
2062;DHT22;11070;51.336;12.340;2023-06-22T07:55:49;28.10;99.90
2062;DHT22;11070;51.336;12.340;2023-06-22T07:58:14;28.00;99.90
2062;DHT22;11070;51.336;12.340;2023-06-22T08:00:41;27.80;99.90
2062;DHT22;11070;51.336;12.340;2023-06-22T08:03:06;27.90;99.90
2062;DHT22;11070;51.336;12.340;2023-06-22T08:05:32;28.10;99.90
2062;DHT22;11070;51.336;12.340;2023-06-22T08:07:58;28.30;99.90
2062;DHT22;11070;51.336;12.340;2023-06-22T08:10:24;28.60;99.90
2062;DHT22;11070;51.336;12.340;2023-06-22T08:12:50;28.90;99.90
2062;DHT22;11070;51.336;12.340;2023-06-22T08:15:17;29.10;99.90
2062;DHT22;11070;51.336;12.340;2023-06-22T08:17:44;29.10;99.90
2062;DHT22;11070;51.336;12.340;2023-06-22T08:20:10;29.40;99.90
2062;DHT22;11070;51.336;12.340;2023-06-22T08:22:40;29.60;99.90
2062;DHT22;11070;51.336;12.340;2023-06-22T08:25:06;29.80;99.90
2062;DHT22;11070;51.336;12.340;2023-06-22T08:27:32;30.10;99.90
2062;DHT22;11070;51.336;12.340;2023-06-22T08:29:59;30.10;99.90
2062;DHT22;11070;51.336;12.340;2023-06-22T08:32:26;30.10;99.90
2062;DHT22;11070;51.336;12.340;2023-06-22T08:34:56;29.80;99.90
2062;DHT22;11070;51.336;12.340;2023-06-22T08:37:22;29.40;99.90
2062;DHT22;11070;51.336;12.340;2023-06-22T08:39:59;29.20;99.90
2062;DHT22;11070;51.336;12.340;2023-06-22T08:42:25;29.10;99.90
2062;DHT22;11070;51.336;12.340;2023-06-22T08:44:51;29.20;99.90
2062;DHT22;11070;51.336;12.340;2023-06-22T08:47:17;29.20;99.90
2062;DHT22;11070;51.336;12.340;2023-06-22T08:49:42;29.30;99.90
2062;DHT22;11070;51.336;12.340;2023-06-22T08:52:08;29.40;99.90
2062;DHT22;11070;51.336;12.340;2023-06-22T08:54:34;29.30;99.90
2062;DHT22;11070;51.336;12.340;2023-06-22T08:57:01;29.30;99.90
2062;DHT22;11070;51.336;12.340;2023-06-22T08:59:27;29.40;99.90
2062;DHT22;11070;51.336;12.340;2023-06-22T09:01:53;29.80;99.90
2062;DHT22;11070;51.336;12.340;2023-06-22T09:04:18;30.30;99.90
2062;DHT22;11070;51.336;12.340;2023-06-22T09:06:47;30.70;97.70
2062;DHT22;11070;51.336;12.340;2023-06-22T09:09:13;30.90;97.00
2062;DHT22;11070;51.336;12.340;2023-06-22T09:11:42;30.90;96.20
2062;DHT22;11070;51.336;12.340;2023-06-22T09:14:09;30.80;96.10
2062;DHT22;11070;51.336;12.340;2023-06-22T09:16:35;30.70;95.60
2062;DHT22;11070;51.336;12.340;2023-06-22T09:19:01;31.10;95.50
2062;DHT22;11070;51.336;12.340;2023-06-22T09:21:26;31.30;94.10
2062;DHT22;11070;51.336;12.340;2023-06-22T09:23:52;31.60;92.70
2062;DHT22;11070;51.336;12.340;2023-06-22T09:26:18;31.90;91.70
2062;DHT22;11070;51.336;12.340;2023-06-22T09:28:44;32.00;89.10
2062;DHT22;11070;51.336;12.340;2023-06-22T09:31:10;32.10;86.60
2062;DHT22;11070;51.336;12.340;2023-06-22T09:33:36;32.00;88.80
2062;DHT22;11070;51.336;12.340;2023-06-22T09:36:04;31.80;88.10
2062;DHT22;11070;51.336;12.340;2023-06-22T09:38:34;31.80;90.10
2062;DHT22;11070;51.336;12.340;2023-06-22T09:41:00;32.10;89.90
2062;DHT22;11070;51.336;12.340;2023-06-22T09:43:27;32.20;81.80
2062;DHT22;11070;51.336;12.340;2023-06-22T09:45:52;32.20;81.10
2062;DHT22;11070;51.336;12.340;2023-06-22T09:48:18;32.10;82.20
2062;DHT22;11070;51.336;12.340;2023-06-22T09:50:44;31.70;82.10
2062;DHT22;11070;51.336;12.340;2023-06-22T09:53:09;31.40;81.50
2062;DHT22;11070;51.336;12.340;2023-06-22T09:55:35;31.40;82.60
2062;DHT22;11070;51.336;12.340;2023-06-22T09:58:00;31.70;82.40
2062;DHT22;11070;51.336;12.340;2023-06-22T10:00:26;31.70;82.20
2062;DHT22;11070;51.336;12.340;2023-06-22T10:02:52;32.00;80.40
2062;DHT22;11070;51.336;12.340;2023-06-22T10:05:18;32.20;78.90
2062;DHT22;11070;51.336;12.340;2023-06-22T10:07:44;32.80;76.00
2062;DHT22;11070;51.336;12.340;2023-06-22T10:10:13;33.20;74.10
2062;DHT22;11070;51.336;12.340;2023-06-22T10:12:47;32.60;74.70
2062;DHT22;11070;51.336;12.340;2023-06-22T10:15:14;32.20;73.50
2062;DHT22;11070;51.336;12.340;2023-06-22T10:17:40;32.30;74.70
2062;DHT22;11070;51.336;12.340;2023-06-22T10:20:06;32.30;71.10
2062;DHT22;11070;51.336;12.340;2023-06-22T10:22:42;32.40;73.10
2062;DHT22;11070;51.336;12.340;2023-06-22T10:25:10;32.80;74.40
2062;DHT22;11070;51.336;12.340;2023-06-22T10:27:35;33.20;73.80
2062;DHT22;11070;51.336;12.340;2023-06-22T10:30:02;33.50;73.20
2062;DHT22;11070;51.336;12.340;2023-06-22T10:32:27;34.00;70.60
2062;DHT22;11070;51.336;12.340;2023-06-22T10:34:54;33.80;68.80
2062;DHT22;11070;51.336;12.340;2023-06-22T10:37:20;34.00;66.80
2062;DHT22;11070;51.336;12.340;2023-06-22T10:39:45;33.70;67.90
2062;DHT22;11070;51.336;12.340;2023-06-22T10:42:12;33.80;68.50
2062;DHT22;11070;51.336;12.340;2023-06-22T10:44:38;34.10;68.20
2062;DHT22;11070;51.336;12.340;2023-06-22T10:47:06;34.20;68.70
2062;DHT22;11070;51.336;12.340;2023-06-22T10:49:32;34.70;64.50
2062;DHT22;11070;51.336;12.340;2023-06-22T10:51:57;34.70;65.00
2062;DHT22;11070;51.336;12.340;2023-06-22T10:54:23;35.00;63.30
2062;DHT22;11070;51.336;12.340;2023-06-22T10:56:49;34.50;63.20
2062;DHT22;11070;51.336;12.340;2023-06-22T10:59:16;34.30;63.90
2062;DHT22;11070;51.336;12.340;2023-06-22T11:01:42;34.30;62.80
2062;DHT22;11070;51.336;12.340;2023-06-22T11:04:07;34.70;63.40
2062;DHT22;11070;51.336;12.340;2023-06-22T11:06:33;35.00;63.00
2062;DHT22;11070;51.336;12.340;2023-06-22T11:08:59;35.50;61.50
2062;DHT22;11070;51.336;12.340;2023-06-22T11:11:25;35.30;60.60
2062;DHT22;11070;51.336;12.340;2023-06-22T11:13:52;35.10;62.20
2062;DHT22;11070;51.336;12.340;2023-06-22T11:16:17;35.40;60.60
2062;DHT22;11070;51.336;12.340;2023-06-22T11:18:43;35.50;60.10
2062;DHT22;11070;51.336;12.340;2023-06-22T11:21:09;35.40;60.20
2062;DHT22;11070;51.336;12.340;2023-06-22T11:23:34;35.70;59.90
2062;DHT22;11070;51.336;12.340;2023-06-22T11:26:00;35.20;60.00
2062;DHT22;11070;51.336;12.340;2023-06-22T11:28:27;35.40;61.20
2062;DHT22;11070;51.336;12.340;2023-06-22T11:30:53;35.50;60.30
2062;DHT22;11070;51.336;12.340;2023-06-22T11:33:18;35.80;59.30
2062;DHT22;11070;51.336;12.340;2023-06-22T11:35:44;36.20;59.30
2062;DHT22;11070;51.336;12.340;2023-06-22T11:38:10;36.40;58.30
2062;DHT22;11070;51.336;12.340;2023-06-22T11:40:36;36.90;57.80
2062;DHT22;11070;51.336;12.340;2023-06-22T11:43:01;36.70;58.00
2062;DHT22;11070;51.336;12.340;2023-06-22T11:45:28;36.20;59.00
2062;DHT22;11070;51.336;12.340;2023-06-22T11:47:53;35.90;59.20
2062;DHT22;11070;51.336;12.340;2023-06-22T11:50:19;35.60;59.90
2062;DHT22;11070;51.336;12.340;2023-06-22T11:52:45;35.70;59.70
2062;DHT22;11070;51.336;12.340;2023-06-22T11:55:10;35.80;59.10
2062;DHT22;11070;51.336;12.340;2023-06-22T11:57:37;35.90;59.10
2062;DHT22;11070;51.336;12.340;2023-06-22T12:00:04;35.80;59.50
2062;DHT22;11070;51.336;12.340;2023-06-22T12:02:43;36.20;59.00
2062;DHT22;11070;51.336;12.340;2023-06-22T12:05:10;36.00;59.40
2062;DHT22;11070;51.336;12.340;2023-06-22T12:07:36;34.90;60.60
2062;DHT22;11070;51.336;12.340;2023-06-22T12:10:03;34.50;62.00
2062;DHT22;11070;51.336;12.340;2023-06-22T12:12:29;34.00;62.70
2062;DHT22;11070;51.336;12.340;2023-06-22T12:14:54;34.30;62.80
2062;DHT22;11070;51.336;12.340;2023-06-22T12:17:20;34.40;62.40
2062;DHT22;11070;51.336;12.340;2023-06-22T12:19:45;34.50;62.10
2062;DHT22;11070;51.336;12.340;2023-06-22T12:22:11;34.60;62.30
2062;DHT22;11070;51.336;12.340;2023-06-22T12:24:37;35.00;62.00
2062;DHT22;11070;51.336;12.340;2023-06-22T12:27:03;35.40;61.00
2062;DHT22;11070;51.336;12.340;2023-06-22T12:29:29;35.70;59.50
2062;DHT22;11070;51.336;12.340;2023-06-22T12:31:54;35.90;59.40
2062;DHT22;11070;51.336;12.340;2023-06-22T12:34:20;35.90;59.20
2062;DHT22;11070;51.336;12.340;2023-06-22T12:36:46;35.40;59.40
2062;DHT22;11070;51.336;12.340;2023-06-22T12:39:13;35.20;61.20
2062;DHT22;11070;51.336;12.340;2023-06-22T12:41:39;35.30;59.80
2062;DHT22;11070;51.336;12.340;2023-06-22T12:44:05;35.40;59.80
2062;DHT22;11070;51.336;12.340;2023-06-22T12:46:30;35.60;59.70
2062;DHT22;11070;51.336;12.340;2023-06-22T12:49:03;35.80;59.70
2062;DHT22;11070;51.336;12.340;2023-06-22T12:51:29;35.90;59.20
2062;DHT22;11070;51.336;12.340;2023-06-22T12:53:55;36.00;59.30
2062;DHT22;11070;51.336;12.340;2023-06-22T12:56:21;35.80;58.50
2062;DHT22;11070;51.336;12.340;2023-06-22T12:58:47;35.20;59.30
2062;DHT22;11070;51.336;12.340;2023-06-22T13:01:12;35.50;59.60
2062;DHT22;11070;51.336;12.340;2023-06-22T13:03:38;35.80;58.60
2062;DHT22;11070;51.336;12.340;2023-06-22T13:06:03;35.70;58.40
2062;DHT22;11070;51.336;12.340;2023-06-22T13:08:29;35.40;59.20
2062;DHT22;11070;51.336;12.340;2023-06-22T13:10:55;35.10;59.70
2062;DHT22;11070;51.336;12.340;2023-06-22T13:13:25;35.10;59.50
2062;DHT22;11070;51.336;12.340;2023-06-22T13:15:52;35.20;59.30
2062;DHT22;11070;51.336;12.340;2023-06-22T13:18:18;35.20;59.70
2062;DHT22;11070;51.336;12.340;2023-06-22T13:20:44;35.40;60.60
2062;DHT22;11070;51.336;12.340;2023-06-22T13:23:11;35.20;59.20
2062;DHT22;11070;51.336;12.340;2023-06-22T13:25:37;35.20;59.80
2062;DHT22;11070;51.336;12.340;2023-06-22T13:28:03;35.60;60.20
2062;DHT22;11070;51.336;12.340;2023-06-22T13:30:28;36.00;59.00
2062;DHT22;11070;51.336;12.340;2023-06-22T13:32:55;36.20;58.70
2062;DHT22;11070;51.336;12.340;2023-06-22T13:35:21;36.20;58.40
2062;DHT22;11070;51.336;12.340;2023-06-22T13:37:46;36.20;58.10
2062;DHT22;11070;51.336;12.340;2023-06-22T13:40:12;36.10;58.00
2062;DHT22;11070;51.336;12.340;2023-06-22T13:42:38;36.10;58.20
2062;DHT22;11070;51.336;12.340;2023-06-22T13:45:05;36.30;57.90
2062;DHT22;11070;51.336;12.340;2023-06-22T13:47:31;36.50;57.90
2062;DHT22;11070;51.336;12.340;2023-06-22T13:49:58;35.90;57.90
2062;DHT22;11070;51.336;12.340;2023-06-22T13:52:26;35.40;59.10
2062;DHT22;11070;51.336;12.340;2023-06-22T13:54:52;35.50;59.20
2062;DHT22;11070;51.336;12.340;2023-06-22T13:57:18;35.60;58.90
2062;DHT22;11070;51.336;12.340;2023-06-22T13:59:44;36.00;58.70
2062;DHT22;11070;51.336;12.340;2023-06-22T14:02:09;36.30;58.60
2062;DHT22;11070;51.336;12.340;2023-06-22T14:04:35;36.10;57.90
2062;DHT22;11070;51.336;12.340;2023-06-22T14:07:00;36.00;59.00
2062;DHT22;11070;51.336;12.340;2023-06-22T14:09:26;35.90;58.90
2062;DHT22;11070;51.336;12.340;2023-06-22T14:11:54;35.90;58.90
2062;DHT22;11070;51.336;12.340;2023-06-22T14:14:20;35.60;59.40
2062;DHT22;11070;51.336;12.340;2023-06-22T14:16:46;35.70;59.40
2062;DHT22;11070;51.336;12.340;2023-06-22T14:19:11;35.70;59.60
2062;DHT22;11070;51.336;12.340;2023-06-22T14:21:37;35.90;58.70
2062;DHT22;11070;51.336;12.340;2023-06-22T14:24:03;35.90;59.10
2062;DHT22;11070;51.336;12.340;2023-06-22T14:26:28;35.80;59.70
2062;DHT22;11070;51.336;12.340;2023-06-22T14:28:54;35.60;58.90
2062;DHT22;11070;51.336;12.340;2023-06-22T14:31:22;35.30;59.40
2062;DHT22;11070;51.336;12.340;2023-06-22T14:33:49;35.10;59.40
2062;DHT22;11070;51.336;12.340;2023-06-22T14:36:15;34.70;60.40
2062;DHT22;11070;51.336;12.340;2023-06-22T14:38:41;34.60;61.50
2062;DHT22;11070;51.336;12.340;2023-06-22T14:41:07;34.80;61.60
2062;DHT22;11070;51.336;12.340;2023-06-22T14:43:32;34.60;62.00
2062;DHT22;11070;51.336;12.340;2023-06-22T14:45:58;34.60;61.50
2062;DHT22;11070;51.336;12.340;2023-06-22T14:48:24;34.80;61.10
2062;DHT22;11070;51.336;12.340;2023-06-22T14:50:49;34.60;61.40
2062;DHT22;11070;51.336;12.340;2023-06-22T14:53:15;34.60;61.60
2062;DHT22;11070;51.336;12.340;2023-06-22T14:55:41;34.70;61.90
2062;DHT22;11070;51.336;12.340;2023-06-22T14:58:07;34.80;61.60
2062;DHT22;11070;51.336;12.340;2023-06-22T15:00:32;34.60;62.20
2062;DHT22;11070;51.336;12.340;2023-06-22T15:02:58;34.60;62.30
2062;DHT22;11070;51.336;12.340;2023-06-22T15:05:25;34.20;62.80
2062;DHT22;11070;51.336;12.340;2023-06-22T15:07:51;33.70;64.40
2062;DHT22;11070;51.336;12.340;2023-06-22T15:10:17;33.40;65.30
2062;DHT22;11070;51.336;12.340;2023-06-22T15:12:42;33.40;65.30
2062;DHT22;11070;51.336;12.340;2023-06-22T15:15:08;33.50;65.00
2062;DHT22;11070;51.336;12.340;2023-06-22T15:17:34;33.60;65.40
2062;DHT22;11070;51.336;12.340;2023-06-22T15:20:00;33.40;65.20
2062;DHT22;11070;51.336;12.340;2023-06-22T15:22:26;33.20;65.60
2062;DHT22;11070;51.336;12.340;2023-06-22T15:24:51;33.00;66.40
2062;DHT22;11070;51.336;12.340;2023-06-22T15:27:19;32.70;67.20
2062;DHT22;11070;51.336;12.340;2023-06-22T15:29:45;32.60;67.60
2062;DHT22;11070;51.336;12.340;2023-06-22T15:32:11;32.40;67.80